sensor_id;sensor_type;location;lat;lon;timestamp;P1;durP1;ratioP1;P2;durP2;ratioP2
20743;SDS011;56303;52.160;-0.428;2022-12-18T00:01:15;21.93;;;15.00;;
20743;SDS011;56303;52.160;-0.428;2022-12-18T00:03:53;21.07;;;14.83;;
20743;SDS011;56303;52.160;-0.428;2022-12-18T00:06:21;19.37;;;13.70;;
20743;SDS011;56303;52.160;-0.428;2022-12-18T00:08:49;19.87;;;15.20;;
20743;SDS011;56303;52.160;-0.428;2022-12-18T00:11:18;23.27;;;17.00;;
20743;SDS011;56303;52.160;-0.428;2022-12-18T00:13:47;26.73;;;16.93;;
20743;SDS011;56303;52.160;-0.428;2022-12-18T00:16:18;25.20;;;16.43;;
20743;SDS011;56303;52.160;-0.428;2022-12-18T00:18:47;22.33;;;14.13;;
20743;SDS011;56303;52.160;-0.428;2022-12-18T00:21:15;22.20;;;14.23;;
20743;SDS011;56303;52.160;-0.428;2022-12-18T00:23:43;19.07;;;13.77;;
20743;SDS011;56303;52.160;-0.428;2022-12-18T00:26:12;23.63;;;15.00;;
20743;SDS011;56303;52.160;-0.428;2022-12-18T00:28:45;19.27;;;15.97;;
20743;SDS011;56303;52.160;-0.428;2022-12-18T00:31:17;20.33;;;15.23;;
20743;SDS011;56303;52.160;-0.428;2022-12-18T00:33:46;18.37;;;13.30;;
20743;SDS011;56303;52.160;-0.428;2022-12-18T00:36:19;24.30;;;15.67;;
20743;SDS011;56303;52.160;-0.428;2022-12-18T00:38:48;20.00;;;14.33;;
20743;SDS011;56303;52.160;-0.428;2022-12-18T00:41:16;26.20;;;16.97;;
20743;SDS011;56303;52.160;-0.428;2022-12-18T00:44:04;23.23;;;14.80;;
20743;SDS011;56303;52.160;-0.428;2022-12-18T00:46:33;19.33;;;13.37;;
20743;SDS011;56303;52.160;-0.428;2022-12-18T00:49:00;23.77;;;15.60;;
20743;SDS011;56303;52.160;-0.428;2022-12-18T00:51:27;22.50;;;16.50;;
20743;SDS011;56303;52.160;-0.428;2022-12-18T00:53:54;23.67;;;16.87;;
20743;SDS011;56303;52.160;-0.428;2022-12-18T00:56:20;25.00;;;16.97;;
20743;SDS011;56303;52.160;-0.428;2022-12-18T00:58:47;30.50;;;20.37;;
20743;SDS011;56303;52.160;-0.428;2022-12-18T01:01:15;36.10;;;21.80;;
20743;SDS011;56303;52.160;-0.428;2022-12-18T01:03:42;35.47;;;21.70;;
20743;SDS011;56303;52.160;-0.428;2022-12-18T01:06:12;40.23;;;24.83;;
20743;SDS011;56303;52.160;-0.428;2022-12-18T01:08:40;40.57;;;23.57;;
20743;SDS011;56303;52.160;-0.428;2022-12-18T01:11:08;40.33;;;23.30;;
20743;SDS011;56303;52.160;-0.428;2022-12-18T01:13:40;52.97;;;26.63;;
20743;SDS011;56303;52.160;-0.428;2022-12-18T01:16:07;78.30;;;34.93;;
20743;SDS011;56303;52.160;-0.428;2022-12-18T01:18:35;226.47;;;53.57;;
20743;SDS011;56303;52.160;-0.428;2022-12-18T01:21:05;421.33;;;82.03;;
20743;SDS011;56303;52.160;-0.428;2022-12-18T01:23:33;529.53;;;96.03;;
20743;SDS011;56303;52.160;-0.428;2022-12-18T01:26:05;716.20;;;121.60;;
20743;SDS011;56303;52.160;-0.428;2022-12-18T01:28:33;562.17;;;99.83;;
20743;SDS011;56303;52.160;-0.428;2022-12-18T01:33:49;678.83;;;109.43;;
20743;SDS011;56303;52.160;-0.428;2022-12-18T01:38:45;729.03;;;115.20;;
20743;SDS011;56303;52.160;-0.428;2022-12-18T01:41:13;1209.43;;;169.53;;
20743;SDS011;56303;52.160;-0.428;2022-12-18T01:43:51;997.77;;;141.60;;
20743;SDS011;56303;52.160;-0.428;2022-12-18T01:46:19;700.77;;;102.80;;
20743;SDS011;56303;52.160;-0.428;2022-12-18T01:48:47;676.13;;;91.87;;
20743;SDS011;56303;52.160;-0.428;2022-12-18T01:51:16;866.27;;;122.80;;
20743;SDS011;56303;52.160;-0.428;2022-12-18T01:53:44;573.67;;;97.90;;
20743;SDS011;56303;52.160;-0.428;2022-12-18T01:56:16;186.93;;;53.17;;
20743;SDS011;56303;52.160;-0.428;2022-12-18T02:01:23;152.63;;;46.30;;
20743;SDS011;56303;52.160;-0.428;2022-12-18T02:03:51;451.67;;;81.93;;
20743;SDS011;56303;52.160;-0.428;2022-12-18T02:06:40;414.43;;;81.20;;
20743;SDS011;56303;52.160;-0.428;2022-12-18T02:09:14;190.90;;;54.27;;
20743;SDS011;56303;52.160;-0.428;2022-12-18T02:12:04;619.97;;;103.03;;
20743;SDS011;56303;52.160;-0.428;2022-12-18T02:14:58;528.77;;;93.37;;
20743;SDS011;56303;52.160;-0.428;2022-12-18T02:28:43;266.70;;;53.33;;
20743;SDS011;56303;52.160;-0.428;2022-12-18T02:31:16;396.73;;;79.50;;
20743;SDS011;56303;52.160;-0.428;2022-12-18T02:33:47;381.97;;;86.47;;
20743;SDS011;56303;52.160;-0.428;2022-12-18T02:36:16;353.23;;;69.77;;
20743;SDS011;56303;52.160;-0.428;2022-12-18T02:38:46;497.60;;;89.67;;
20743;SDS011;56303;52.160;-0.428;2022-12-18T02:41:13;547.57;;;105.70;;
20743;SDS011;56303;52.160;-0.428;2022-12-18T02:43:46;640.73;;;109.97;;
20743;SDS011;56303;52.160;-0.428;2022-12-18T02:46:26;525.10;;;89.37;;
20743;SDS011;56303;52.160;-0.428;2022-12-18T02:49:00;512.20;;;83.20;;
20743;SDS011;56303;52.160;-0.428;2022-12-18T02:51:46;396.10;;;72.47;;
20743;SDS011;56303;52.160;-0.428;2022-12-18T02:54:21;564.67;;;93.97;;
20743;SDS011;56303;52.160;-0.428;2022-12-18T02:57:24;691.47;;;110.57;;
20743;SDS011;56303;52.160;-0.428;2022-12-18T03:00:01;619.20;;;112.13;;
20743;SDS011;56303;52.160;-0.428;2022-12-18T03:02:34;610.23;;;113.53;;
20743;SDS011;56303;52.160;-0.428;2022-12-18T03:07:44;333.17;;;71.53;;
20743;SDS011;56303;52.160;-0.428;2022-12-18T03:10:19;276.67;;;68.77;;
20743;SDS011;56303;52.160;-0.428;2022-12-18T03:12:53;193.77;;;55.93;;
20743;SDS011;56303;52.160;-0.428;2022-12-18T03:15:30;201.20;;;59.73;;
20743;SDS011;56303;52.160;-0.428;2022-12-18T03:18:02;107.47;;;41.67;;
20743;SDS011;56303;52.160;-0.428;2022-12-18T03:20:35;85.57;;;36.53;;
20743;SDS011;56303;52.160;-0.428;2022-12-18T03:23:12;83.90;;;38.93;;
20743;SDS011;56303;52.160;-0.428;2022-12-18T03:25:44;146.83;;;48.20;;
20743;SDS011;56303;52.160;-0.428;2022-12-18T03:28:17;132.67;;;49.83;;
20743;SDS011;56303;52.160;-0.428;2022-12-18T03:30:49;96.57;;;42.87;;
20743;SDS011;56303;52.160;-0.428;2022-12-18T03:33:23;89.13;;;38.43;;
20743;SDS011;56303;52.160;-0.428;2022-12-18T03:35:57;85.43;;;40.57;;
20743;SDS011;56303;52.160;-0.428;2022-12-18T03:38:24;96.60;;;41.90;;
20743;SDS011;56303;52.160;-0.428;2022-12-18T03:41:07;90.47;;;39.67;;
20743;SDS011;56303;52.160;-0.428;2022-12-18T03:46:27;108.93;;;40.87;;
20743;SDS011;56303;52.160;-0.428;2022-12-18T03:49:22;114.57;;;42.23;;
20743;SDS011;56303;52.160;-0.428;2022-12-18T03:52:10;85.83;;;36.87;;
20743;SDS011;56303;52.160;-0.428;2022-12-18T03:54:41;107.73;;;41.53;;
20743;SDS011;56303;52.160;-0.428;2022-12-18T03:57:15;112.17;;;43.37;;
20743;SDS011;56303;52.160;-0.428;2022-12-18T03:59:45;123.50;;;44.87;;
20743;SDS011;56303;52.160;-0.428;2022-12-18T04:02:16;130.87;;;46.70;;
20743;SDS011;56303;52.160;-0.428;2022-12-18T04:04:44;108.27;;;41.77;;
20743;SDS011;56303;52.160;-0.428;2022-12-18T04:07:12;107.93;;;41.83;;
20743;SDS011;56303;52.160;-0.428;2022-12-18T04:09:40;83.70;;;35.67;;
20743;SDS011;56303;52.160;-0.428;2022-12-18T04:12:09;94.00;;;40.77;;
20743;SDS011;56303;52.160;-0.428;2022-12-18T04:14:36;75.47;;;35.13;;
20743;SDS011;56303;52.160;-0.428;2022-12-18T04:17:03;77.80;;;36.90;;
20743;SDS011;56303;52.160;-0.428;2022-12-18T04:19:29;67.83;;;31.63;;
20743;SDS011;56303;52.160;-0.428;2022-12-18T04:21:56;76.03;;;33.53;;
20743;SDS011;56303;52.160;-0.428;2022-12-18T04:24:23;70.03;;;32.77;;
20743;SDS011;56303;52.160;-0.428;2022-12-18T04:26:50;73.07;;;30.40;;
20743;SDS011;56303;52.160;-0.428;2022-12-18T04:29:17;69.77;;;32.33;;
20743;SDS011;56303;52.160;-0.428;2022-12-18T04:31:44;66.77;;;31.00;;
20743;SDS011;56303;52.160;-0.428;2022-12-18T04:34:10;61.90;;;31.07;;
20743;SDS011;56303;52.160;-0.428;2022-12-18T04:36:37;64.83;;;31.50;;
20743;SDS011;56303;52.160;-0.428;2022-12-18T04:39:04;64.03;;;30.00;;
20743;SDS011;56303;52.160;-0.428;2022-12-18T04:41:31;63.97;;;30.93;;
20743;SDS011;56303;52.160;-0.428;2022-12-18T04:43:57;59.83;;;28.43;;
20743;SDS011;56303;52.160;-0.428;2022-12-18T04:46:24;62.17;;;30.97;;
20743;SDS011;56303;52.160;-0.428;2022-12-18T04:48:51;63.27;;;29.77;;
20743;SDS011;56303;52.160;-0.428;2022-12-18T04:51:18;57.63;;;26.87;;
20743;SDS011;56303;52.160;-0.428;2022-12-18T04:53:51;55.57;;;28.07;;
20743;SDS011;56303;52.160;-0.428;2022-12-18T04:56:19;68.87;;;31.23;;
20743;SDS011;56303;52.160;-0.428;2022-12-18T04:58:46;64.50;;;29.23;;
20743;SDS011;56303;52.160;-0.428;2022-12-18T05:01:14;57.83;;;28.40;;
20743;SDS011;56303;52.160;-0.428;2022-12-18T05:03:43;64.40;;;29.87;;
20743;SDS011;56303;52.160;-0.428;2022-12-18T05:06:10;58.40;;;27.03;;
20743;SDS011;56303;52.160;-0.428;2022-12-18T05:08:37;60.17;;;27.60;;
20743;SDS011;56303;52.160;-0.428;2022-12-18T05:11:08;65.17;;;30.43;;
20743;SDS011;56303;52.160;-0.428;2022-12-18T05:13:42;62.33;;;28.83;;
20743;SDS011;56303;52.160;-0.428;2022-12-18T05:16:10;60.73;;;30.40;;
20743;SDS011;56303;52.160;-0.428;2022-12-18T05:18:37;51.07;;;27.57;;
20743;SDS011;56303;52.160;-0.428;2022-12-18T05:21:05;64.13;;;29.77;;
20743;SDS011;56303;52.160;-0.428;2022-12-18T05:23:35;58.07;;;30.13;;
20743;SDS011;56303;52.160;-0.428;2022-12-18T05:26:04;60.63;;;28.97;;
20743;SDS011;56303;52.160;-0.428;2022-12-18T05:28:32;58.83;;;28.47;;
20743;SDS011;56303;52.160;-0.428;2022-12-18T05:31:01;61.83;;;28.03;;
20743;SDS011;56303;52.160;-0.428;2022-12-18T05:33:31;55.17;;;28.30;;
20743;SDS011;56303;52.160;-0.428;2022-12-18T05:36:00;57.60;;;27.73;;
20743;SDS011;56303;52.160;-0.428;2022-12-18T05:38:28;54.63;;;28.70;;
20743;SDS011;56303;52.160;-0.428;2022-12-18T05:40:56;55.60;;;27.83;;
20743;SDS011;56303;52.160;-0.428;2022-12-18T05:43:24;55.73;;;26.67;;
20743;SDS011;56303;52.160;-0.428;2022-12-18T05:45:52;54.33;;;26.30;;
20743;SDS011;56303;52.160;-0.428;2022-12-18T05:48:20;56.53;;;27.73;;
20743;SDS011;56303;52.160;-0.428;2022-12-18T05:50:48;49.93;;;26.73;;
20743;SDS011;56303;52.160;-0.428;2022-12-18T05:53:18;55.90;;;26.47;;
20743;SDS011;56303;52.160;-0.428;2022-12-18T05:55:46;52.13;;;25.60;;
20743;SDS011;56303;52.160;-0.428;2022-12-18T05:58:13;53.93;;;26.23;;
20743;SDS011;56303;52.160;-0.428;2022-12-18T06:00:41;48.57;;;26.07;;
20743;SDS011;56303;52.160;-0.428;2022-12-18T06:03:11;57.20;;;27.37;;
20743;SDS011;56303;52.160;-0.428;2022-12-18T06:05:39;52.07;;;26.73;;
20743;SDS011;56303;52.160;-0.428;2022-12-18T06:08:10;47.97;;;26.20;;
20743;SDS011;56303;52.160;-0.428;2022-12-18T06:10:38;47.43;;;24.40;;
20743;SDS011;56303;52.160;-0.428;2022-12-18T06:13:06;53.17;;;27.90;;
20743;SDS011;56303;52.160;-0.428;2022-12-18T06:15:35;45.43;;;25.27;;
20743;SDS011;56303;52.160;-0.428;2022-12-18T06:18:03;49.30;;;25.23;;
20743;SDS011;56303;52.160;-0.428;2022-12-18T06:20:30;38.63;;;22.40;;
20743;SDS011;56303;52.160;-0.428;2022-12-18T06:22:59;47.87;;;24.77;;
20743;SDS011;56303;52.160;-0.428;2022-12-18T06:25:26;52.40;;;24.90;;
20743;SDS011;56303;52.160;-0.428;2022-12-18T06:27:53;47.20;;;24.37;;
20743;SDS011;56303;52.160;-0.428;2022-12-18T06:30:20;45.03;;;23.13;;
20743;SDS011;56303;52.160;-0.428;2022-12-18T06:32:49;44.27;;;24.10;;
20743;SDS011;56303;52.160;-0.428;2022-12-18T06:35:22;37.07;;;22.07;;
20743;SDS011;56303;52.160;-0.428;2022-12-18T06:37:49;45.13;;;23.83;;
20743;SDS011;56303;52.160;-0.428;2022-12-18T06:40:16;42.80;;;24.97;;
20743;SDS011;56303;52.160;-0.428;2022-12-18T06:42:43;45.23;;;24.63;;
20743;SDS011;56303;52.160;-0.428;2022-12-18T06:45:10;44.30;;;22.33;;
20743;SDS011;56303;52.160;-0.428;2022-12-18T06:47:37;48.23;;;25.63;;
20743;SDS011;56303;52.160;-0.428;2022-12-18T06:50:04;40.33;;;21.97;;
20743;SDS011;56303;52.160;-0.428;2022-12-18T06:52:32;40.80;;;22.40;;
20743;SDS011;56303;52.160;-0.428;2022-12-18T06:54:59;41.57;;;23.47;;
20743;SDS011;56303;52.160;-0.428;2022-12-18T06:57:26;42.33;;;23.67;;
20743;SDS011;56303;52.160;-0.428;2022-12-18T06:59:53;47.63;;;23.83;;
20743;SDS011;56303;52.160;-0.428;2022-12-18T07:02:19;42.97;;;22.40;;
20743;SDS011;56303;52.160;-0.428;2022-12-18T07:04:46;48.00;;;23.30;;
20743;SDS011;56303;52.160;-0.428;2022-12-18T07:07:13;42.80;;;24.10;;
20743;SDS011;56303;52.160;-0.428;2022-12-18T07:09:40;43.13;;;24.23;;
20743;SDS011;56303;52.160;-0.428;2022-12-18T07:12:07;44.27;;;24.63;;
20743;SDS011;56303;52.160;-0.428;2022-12-18T07:14:34;40.73;;;23.33;;
20743;SDS011;56303;52.160;-0.428;2022-12-18T07:17:00;41.80;;;24.77;;
20743;SDS011;56303;52.160;-0.428;2022-12-18T07:19:28;41.53;;;24.17;;
20743;SDS011;56303;52.160;-0.428;2022-12-18T07:21:56;44.10;;;25.03;;
20743;SDS011;56303;52.160;-0.428;2022-12-18T07:24:23;44.77;;;23.33;;
20743;SDS011;56303;52.160;-0.428;2022-12-18T07:26:49;42.67;;;24.07;;
20743;SDS011;56303;52.160;-0.428;2022-12-18T07:29:16;49.10;;;26.13;;
20743;SDS011;56303;52.160;-0.428;2022-12-18T07:31:43;46.50;;;25.93;;
20743;SDS011;56303;52.160;-0.428;2022-12-18T07:34:13;41.77;;;24.13;;
20743;SDS011;56303;52.160;-0.428;2022-12-18T07:36:41;48.73;;;25.47;;
20743;SDS011;56303;52.160;-0.428;2022-12-18T07:39:08;49.67;;;27.30;;
20743;SDS011;56303;52.160;-0.428;2022-12-18T07:41:37;45.67;;;27.50;;
20743;SDS011;56303;52.160;-0.428;2022-12-18T07:44:12;43.70;;;25.53;;
20743;SDS011;56303;52.160;-0.428;2022-12-18T07:46:39;53.10;;;28.03;;
20743;SDS011;56303;52.160;-0.428;2022-12-18T07:49:05;54.50;;;27.77;;
20743;SDS011;56303;52.160;-0.428;2022-12-18T07:51:32;49.93;;;27.27;;
20743;SDS011;56303;52.160;-0.428;2022-12-18T07:53:59;49.17;;;27.07;;
20743;SDS011;56303;52.160;-0.428;2022-12-18T07:56:26;52.43;;;28.50;;
20743;SDS011;56303;52.160;-0.428;2022-12-18T07:58:55;56.83;;;28.93;;
20743;SDS011;56303;52.160;-0.428;2022-12-18T08:01:23;54.37;;;27.87;;
20743;SDS011;56303;52.160;-0.428;2022-12-18T08:03:50;57.37;;;29.90;;
20743;SDS011;56303;52.160;-0.428;2022-12-18T08:06:18;56.03;;;30.10;;
20743;SDS011;56303;52.160;-0.428;2022-12-18T08:08:50;52.70;;;30.50;;
20743;SDS011;56303;52.160;-0.428;2022-12-18T08:11:18;55.37;;;29.77;;
20743;SDS011;56303;52.160;-0.428;2022-12-18T08:13:46;55.53;;;29.37;;
20743;SDS011;56303;52.160;-0.428;2022-12-18T08:16:14;52.83;;;28.77;;
20743;SDS011;56303;52.160;-0.428;2022-12-18T08:18:41;55.87;;;28.93;;
20743;SDS011;56303;52.160;-0.428;2022-12-18T08:21:08;51.60;;;28.40;;
20743;SDS011;56303;52.160;-0.428;2022-12-18T08:23:36;50.67;;;29.63;;
20743;SDS011;56303;52.160;-0.428;2022-12-18T08:26:08;48.87;;;26.97;;
20743;SDS011;56303;52.160;-0.428;2022-12-18T08:28:37;47.87;;;25.27;;
20743;SDS011;56303;52.160;-0.428;2022-12-18T08:31:04;41.97;;;25.17;;
20743;SDS011;56303;52.160;-0.428;2022-12-18T08:33:32;42.80;;;25.67;;
20743;SDS011;56303;52.160;-0.428;2022-12-18T08:35:59;48.47;;;26.77;;
20743;SDS011;56303;52.160;-0.428;2022-12-18T08:38:27;44.30;;;24.30;;
20743;SDS011;56303;52.160;-0.428;2022-12-18T08:41:05;47.10;;;25.10;;
20743;SDS011;56303;52.160;-0.428;2022-12-18T08:43:33;48.40;;;26.13;;
20743;SDS011;56303;52.160;-0.428;2022-12-18T08:46:19;44.63;;;25.77;;
20743;SDS011;56303;52.160;-0.428;2022-12-18T08:48:47;48.17;;;25.07;;
20743;SDS011;56303;52.160;-0.428;2022-12-18T08:51:16;39.80;;;23.37;;
20743;SDS011;56303;52.160;-0.428;2022-12-18T08:53:43;38.10;;;23.33;;
20743;SDS011;56303;52.160;-0.428;2022-12-18T08:56:11;38.30;;;23.20;;
20743;SDS011;56303;52.160;-0.428;2022-12-18T08:58:39;35.73;;;22.47;;
20743;SDS011;56303;52.160;-0.428;2022-12-18T09:01:07;40.23;;;24.23;;
20743;SDS011;56303;52.160;-0.428;2022-12-18T09:03:36;42.43;;;23.97;;
20743;SDS011;56303;52.160;-0.428;2022-12-18T09:06:04;40.50;;;22.87;;
20743;SDS011;56303;52.160;-0.428;2022-12-18T09:08:31;37.53;;;22.33;;
20743;SDS011;56303;52.160;-0.428;2022-12-18T09:11:02;36.43;;;22.53;;
20743;SDS011;56303;52.160;-0.428;2022-12-18T09:13:29;43.40;;;23.80;;
20743;SDS011;56303;52.160;-0.428;2022-12-18T09:15:56;32.67;;;20.73;;
20743;SDS011;56303;52.160;-0.428;2022-12-18T09:18:23;39.67;;;23.90;;
20743;SDS011;56303;52.160;-0.428;2022-12-18T09:20:51;42.77;;;23.80;;
20743;SDS011;56303;52.160;-0.428;2022-12-18T09:23:19;37.23;;;23.90;;
20743;SDS011;56303;52.160;-0.428;2022-12-18T09:25:46;41.70;;;22.37;;
20743;SDS011;56303;52.160;-0.428;2022-12-18T09:28:14;36.37;;;22.37;;
20743;SDS011;56303;52.160;-0.428;2022-12-18T09:30:46;35.73;;;21.60;;
20743;SDS011;56303;52.160;-0.428;2022-12-18T09:33:15;39.10;;;21.60;;
20743;SDS011;56303;52.160;-0.428;2022-12-18T09:35:43;36.20;;;22.77;;
20743;SDS011;56303;52.160;-0.428;2022-12-18T09:38:12;38.53;;;22.03;;
20743;SDS011;56303;52.160;-0.428;2022-12-18T09:40:42;31.67;;;18.97;;
20743;SDS011;56303;52.160;-0.428;2022-12-18T09:43:22;33.90;;;20.77;;
20743;SDS011;56303;52.160;-0.428;2022-12-18T09:46:03;38.30;;;19.60;;
20743;SDS011;56303;52.160;-0.428;2022-12-18T09:48:42;36.53;;;19.53;;
20743;SDS011;56303;52.160;-0.428;2022-12-18T09:51:14;31.90;;;19.60;;
20743;SDS011;56303;52.160;-0.428;2022-12-18T09:53:47;34.00;;;19.43;;
20743;SDS011;56303;52.160;-0.428;2022-12-18T09:56:19;33.00;;;20.33;;
20743;SDS011;56303;52.160;-0.428;2022-12-18T10:01:21;32.70;;;21.30;;
20743;SDS011;56303;52.160;-0.428;2022-12-18T10:03:51;35.30;;;21.50;;
20743;SDS011;56303;52.160;-0.428;2022-12-18T10:17:28;32.50;;;19.63;;
20743;SDS011;56303;52.160;-0.428;2022-12-18T10:27:58;31.73;;;20.67;;
20743;SDS011;56303;52.160;-0.428;2022-12-18T10:30:34;34.57;;;21.37;;
20743;SDS011;56303;52.160;-0.428;2022-12-18T10:33:02;33.43;;;19.73;;
20743;SDS011;56303;52.160;-0.428;2022-12-18T10:35:29;31.40;;;21.03;;
20743;SDS011;56303;52.160;-0.428;2022-12-18T10:43:38;30.60;;;19.33;;
20743;SDS011;56303;52.160;-0.428;2022-12-18T10:48:36;29.80;;;19.37;;
20743;SDS011;56303;52.160;-0.428;2022-12-18T10:53:56;28.57;;;19.57;;
20743;SDS011;56303;52.160;-0.428;2022-12-18T10:56:28;26.33;;;18.03;;
20743;SDS011;56303;52.160;-0.428;2022-12-18T10:58:58;27.00;;;18.63;;
20743;SDS011;56303;52.160;-0.428;2022-12-18T11:01:51;32.20;;;20.83;;
20743;SDS011;56303;52.160;-0.428;2022-12-18T11:04:32;26.80;;;19.23;;
20743;SDS011;56303;52.160;-0.428;2022-12-18T11:07:05;33.10;;;21.67;;
20743;SDS011;56303;52.160;-0.428;2022-12-18T11:09:34;30.37;;;19.60;;
20743;SDS011;56303;52.160;-0.428;2022-12-18T11:12:03;35.90;;;20.07;;
20743;SDS011;56303;52.160;-0.428;2022-12-18T11:14:53;31.93;;;20.77;;
20743;SDS011;56303;52.160;-0.428;2022-12-18T11:17:29;30.43;;;19.47;;
20743;SDS011;56303;52.160;-0.428;2022-12-18T11:19:59;30.17;;;19.80;;
20743;SDS011;56303;52.160;-0.428;2022-12-18T11:22:53;29.20;;;20.90;;
20743;SDS011;56303;52.160;-0.428;2022-12-18T11:25:32;29.80;;;20.00;;
20743;SDS011;56303;52.160;-0.428;2022-12-18T11:28:05;28.50;;;20.87;;
20743;SDS011;56303;52.160;-0.428;2022-12-18T11:31:08;30.20;;;21.20;;
20743;SDS011;56303;52.160;-0.428;2022-12-18T11:36:57;31.10;;;20.67;;
20743;SDS011;56303;52.160;-0.428;2022-12-18T11:39:31;30.03;;;19.53;;
20743;SDS011;56303;52.160;-0.428;2022-12-18T11:42:01;29.40;;;19.17;;
20743;SDS011;56303;52.160;-0.428;2022-12-18T11:44:58;32.43;;;21.90;;
20743;SDS011;56303;52.160;-0.428;2022-12-18T11:47:40;26.67;;;19.27;;
20743;SDS011;56303;52.160;-0.428;2022-12-18T11:50:25;27.23;;;19.03;;
20743;SDS011;56303;52.160;-0.428;2022-12-18T11:53:11;29.37;;;19.47;;
20743;SDS011;56303;52.160;-0.428;2022-12-18T12:09:31;26.80;;;19.33;;
20743;SDS011;56303;52.160;-0.428;2022-12-18T12:17:43;31.07;;;20.57;;
20743;SDS011;56303;52.160;-0.428;2022-12-18T12:20:22;30.97;;;21.17;;
20743;SDS011;56303;52.160;-0.428;2022-12-18T12:26:02;27.27;;;19.43;;
20743;SDS011;56303;52.160;-0.428;2022-12-18T12:33:53;31.63;;;21.60;;
20743;SDS011;56303;52.160;-0.428;2022-12-18T12:39:11;32.40;;;24.23;;
20743;SDS011;56303;52.160;-0.428;2022-12-18T12:41:42;30.90;;;21.97;;
20743;SDS011;56303;52.160;-0.428;2022-12-18T12:44:32;32.43;;;22.40;;
20743;SDS011;56303;52.160;-0.428;2022-12-18T12:47:13;28.43;;;20.63;;
20743;SDS011;56303;52.160;-0.428;2022-12-18T12:49:47;28.20;;;22.23;;
20743;SDS011;56303;52.160;-0.428;2022-12-18T12:53:05;29.37;;;22.67;;
20743;SDS011;56303;52.160;-0.428;2022-12-18T12:55:07;35.77;;;22.47;;
20743;SDS011;56303;52.160;-0.428;2022-12-18T12:58:01;33.40;;;22.23;;
20743;SDS011;56303;52.160;-0.428;2022-12-18T13:00:48;31.27;;;21.53;;
20743;SDS011;56303;52.160;-0.428;2022-12-18T13:03:52;34.03;;;23.90;;
20743;SDS011;56303;52.160;-0.428;2022-12-18T13:06:33;28.80;;;21.87;;
20743;SDS011;56303;52.160;-0.428;2022-12-18T13:09:20;34.03;;;24.60;;
20743;SDS011;56303;52.160;-0.428;2022-12-18T13:11:47;34.93;;;21.70;;
20743;SDS011;56303;52.160;-0.428;2022-12-18T13:14:37;30.40;;;21.00;;
20743;SDS011;56303;52.160;-0.428;2022-12-18T13:19:51;34.07;;;23.80;;
20743;SDS011;56303;52.160;-0.428;2022-12-18T13:22:37;30.03;;;22.67;;
20743;SDS011;56303;52.160;-0.428;2022-12-18T13:28:02;34.93;;;22.87;;
20743;SDS011;56303;52.160;-0.428;2022-12-18T13:38:21;33.67;;;24.37;;
20743;SDS011;56303;52.160;-0.428;2022-12-18T13:51:29;35.83;;;24.80;;
20743;SDS011;56303;52.160;-0.428;2022-12-18T13:53:58;36.93;;;25.70;;
20743;SDS011;56303;52.160;-0.428;2022-12-18T13:56:42;37.13;;;26.03;;
20743;SDS011;56303;52.160;-0.428;2022-12-18T14:04:47;42.77;;;27.83;;
20743;SDS011;56303;52.160;-0.428;2022-12-18T14:07:12;42.53;;;29.13;;
20743;SDS011;56303;52.160;-0.428;2022-12-18T14:09:50;44.50;;;30.10;;
20743;SDS011;56303;52.160;-0.428;2022-12-18T14:13:04;41.17;;;26.53;;
20743;SDS011;56303;52.160;-0.428;2022-12-18T14:15:35;46.90;;;30.30;;
20743;SDS011;56303;52.160;-0.428;2022-12-18T14:20:46;43.87;;;29.60;;
20743;SDS011;56303;52.160;-0.428;2022-12-18T14:23:28;47.43;;;30.73;;
20743;SDS011;56303;52.160;-0.428;2022-12-18T14:25:57;45.57;;;30.40;;
20743;SDS011;56303;52.160;-0.428;2022-12-18T14:28:30;46.87;;;29.47;;
20743;SDS011;56303;52.160;-0.428;2022-12-18T14:30:57;41.10;;;26.17;;
20743;SDS011;56303;52.160;-0.428;2022-12-18T14:33:25;37.67;;;26.93;;
20743;SDS011;56303;52.160;-0.428;2022-12-18T14:38:43;45.17;;;27.43;;
20743;SDS011;56303;52.160;-0.428;2022-12-18T14:41:20;40.07;;;25.00;;
20743;SDS011;56303;52.160;-0.428;2022-12-18T14:43:48;37.70;;;25.23;;
20743;SDS011;56303;52.160;-0.428;2022-12-18T14:46:27;35.47;;;24.37;;
20743;SDS011;56303;52.160;-0.428;2022-12-18T14:49:05;34.73;;;24.00;;
20743;SDS011;56303;52.160;-0.428;2022-12-18T14:51:58;34.87;;;22.97;;
20743;SDS011;56303;52.160;-0.428;2022-12-18T14:54:27;32.90;;;20.93;;
20743;SDS011;56303;52.160;-0.428;2022-12-18T14:59:48;35.13;;;21.90;;
20743;SDS011;56303;52.160;-0.428;2022-12-18T15:02:22;33.80;;;23.37;;
20743;SDS011;56303;52.160;-0.428;2022-12-18T15:05:02;33.57;;;22.63;;
20743;SDS011;56303;52.160;-0.428;2022-12-18T15:07:45;34.30;;;23.23;;
20743;SDS011;56303;52.160;-0.428;2022-12-18T15:10:15;31.87;;;20.47;;
20743;SDS011;56303;52.160;-0.428;2022-12-18T15:23:23;27.80;;;19.37;;
20743;SDS011;56303;52.160;-0.428;2022-12-18T15:26:02;27.93;;;18.60;;
20743;SDS011;56303;52.160;-0.428;2022-12-18T15:28:35;26.17;;;19.27;;
20743;SDS011;56303;52.160;-0.428;2022-12-18T15:36:19;24.60;;;18.17;;
20743;SDS011;56303;52.160;-0.428;2022-12-18T15:38:52;22.97;;;17.33;;
20743;SDS011;56303;52.160;-0.428;2022-12-18T15:41:31;26.43;;;18.63;;
20743;SDS011;56303;52.160;-0.428;2022-12-18T15:44:02;24.13;;;17.03;;
20743;SDS011;56303;52.160;-0.428;2022-12-18T15:46:46;20.67;;;15.53;;
20743;SDS011;56303;52.160;-0.428;2022-12-18T15:49:13;20.27;;;15.10;;
20743;SDS011;56303;52.160;-0.428;2022-12-18T15:51:40;20.40;;;15.63;;
20743;SDS011;56303;52.160;-0.428;2022-12-18T15:54:09;20.20;;;15.27;;
20743;SDS011;56303;52.160;-0.428;2022-12-18T15:56:39;19.47;;;15.37;;
20743;SDS011;56303;52.160;-0.428;2022-12-18T15:59:25;19.87;;;14.77;;
20743;SDS011;56303;52.160;-0.428;2022-12-18T16:01:52;18.63;;;14.80;;
20743;SDS011;56303;52.160;-0.428;2022-12-18T16:04:20;20.00;;;15.43;;
20743;SDS011;56303;52.160;-0.428;2022-12-18T16:06:48;19.17;;;14.67;;
20743;SDS011;56303;52.160;-0.428;2022-12-18T16:09:36;18.30;;;14.53;;
20743;SDS011;56303;52.160;-0.428;2022-12-18T16:12:03;16.73;;;13.63;;
20743;SDS011;56303;52.160;-0.428;2022-12-18T16:14:31;17.70;;;13.27;;
20743;SDS011;56303;52.160;-0.428;2022-12-18T16:16:59;18.73;;;13.93;;
20743;SDS011;56303;52.160;-0.428;2022-12-18T16:19:32;18.57;;;13.37;;
20743;SDS011;56303;52.160;-0.428;2022-12-18T16:22:01;18.33;;;14.13;;
20743;SDS011;56303;52.160;-0.428;2022-12-18T16:24:31;17.77;;;13.37;;
20743;SDS011;56303;52.160;-0.428;2022-12-18T16:26:59;17.33;;;13.93;;
20743;SDS011;56303;52.160;-0.428;2022-12-18T16:29:28;18.17;;;13.70;;
20743;SDS011;56303;52.160;-0.428;2022-12-18T16:32:00;19.40;;;17.30;;
20743;SDS011;56303;52.160;-0.428;2022-12-18T16:36:59;16.77;;;14.20;;
20743;SDS011;56303;52.160;-0.428;2022-12-18T16:39:31;17.83;;;12.63;;
20743;SDS011;56303;52.160;-0.428;2022-12-18T16:42:01;14.43;;;12.13;;
20743;SDS011;56303;52.160;-0.428;2022-12-18T16:44:31;16.53;;;12.93;;
20743;SDS011;56303;52.160;-0.428;2022-12-18T16:46:59;20.23;;;16.83;;
20743;SDS011;56303;52.160;-0.428;2022-12-18T16:49:28;15.87;;;13.00;;
20743;SDS011;56303;52.160;-0.428;2022-12-18T16:51:56;16.97;;;11.80;;
20743;SDS011;56303;52.160;-0.428;2022-12-18T16:54:23;16.80;;;13.33;;
20743;SDS011;56303;52.160;-0.428;2022-12-18T16:56:50;17.83;;;14.53;;
20743;SDS011;56303;52.160;-0.428;2022-12-18T16:59:17;15.37;;;12.70;;